Time;durP1;ratioP1;P1;durP2;ratioP2;P2;SDS_P1;SDS_P2;PMS_P1;PMS_P2;Temp;Humidity;BMP_temperature;BMP_pressure;BME280_temperature;BME280_humidity;BME280_pressure;Samples;Min_cycle;Max_cycle;Signal;HPM_P1;HPM_P2
2023/01/19 00:10:00;;;;;;;1.90;0.50;;;3.60;99.90;;;;;;20477802;28;20055;-42
2023/01/19 00:20:02;;;;;;;2.40;1.00;;;3.50;99.90;;;;;;20473716;28;20070;-42
2023/01/19 00:30:04;;;;;;;1.55;0.20;;;3.60;99.90;;;;;;20479612;28;20035;-42
2023/01/19 00:40:06;;;;;;;0.88;0.38;;;3.50;99.90;;;;;;20459861;28;20117;-43
2023/01/19 00:50:12;;;;;;;0.70;0.20;;;3.60;99.90;;;;;;20480313;28;20117;-43
2023/01/19 01:00:18;;;;;;;0.37;0.10;;;3.60;99.90;;;;;;20473159;28;20106;-43
2023/01/19 01:10:22;;;;;;;0.43;0.00;;;3.40;99.90;;;;;;20473449;28;20444;-44
2023/01/19 01:20:27;;;;;;;0.73;0.22;;;3.40;99.90;;;;;;20465875;28;20431;-44
2023/01/19 01:30:28;;;;;;;1.00;0.28;;;3.50;99.90;;;;;;20467139;28;20047;-44
2023/01/19 01:40:29;;;;;;;1.70;0.55;;;3.60;99.90;;;;;;20466392;28;20117;-44
2023/01/19 01:50:33;;;;;;;3.58;0.55;;;3.80;99.90;;;;;;20478335;28;20039;-44
2023/01/19 02:21:41;;;;;;;2.70;0.75;;;3.80;99.90;;;;;;20486395;28;20074;-43
2023/01/19 02:31:45;;;;;;;2.40;0.82;;;3.70;99.90;;;;;;20491585;28;20903;-43
2023/01/19 02:41:52;;;;;;;3.17;1.15;;;3.70;99.90;;;;;;20480349;28;20352;-43
2023/01/19 02:51:53;;;;;;;3.58;0.65;;;3.70;99.90;;;;;;20481147;28;20054;-44
2023/01/19 03:02:18;;;;;;;1.15;0.20;;;3.60;99.10;;;;;;20487327;28;20043;-44
2023/01/19 03:12:37;;;;;;;4.07;0.20;;;3.40;99.60;;;;;;20480085;28;20097;-44
2023/01/19 03:22:38;;;;;;;2.72;0.80;;;3.20;99.90;;;;;;20473216;28;21962;-44
2023/01/19 03:32:49;;;;;;;2.72;0.65;;;3.00;99.90;;;;;;20481051;28;20043;-44
2023/01/19 03:42:51;;;;;;;2.15;0.60;;;3.00;99.90;;;;;;20472334;28;20885;-43
2023/01/19 03:53:09;;;;;;;0.73;0.10;;;3.00;99.90;;;;;;20475866;28;20533;-43
2023/01/19 04:03:16;;;;;;;2.25;0.52;;;2.70;99.90;;;;;;20479236;28;20051;-43
2023/01/19 04:13:17;;;;;;;2.33;0.20;;;2.70;99.90;;;;;;20473924;28;20051;-43
2023/01/19 04:23:18;;;;;;;3.17;0.57;;;2.70;99.90;;;;;;20473721;28;20047;-43
2023/01/19 04:33:21;;;;;;;2.10;0.88;;;2.70;99.90;;;;;;20490665;28;20054;-43
2023/01/19 04:43:22;;;;;;;5.93;1.15;;;2.80;99.90;;;;;;20480147;28;20063;-43
2023/01/19 04:53:23;;;;;;;2.08;1.00;;;2.70;99.90;;;;;;20482939;28;20112;-43
2023/01/19 05:03:24;;;;;;;1.27;0.57;;;2.80;99.90;;;;;;20486646;28;20047;-43
2023/01/19 05:13:25;;;;;;;3.20;1.02;;;2.90;99.90;;;;;;20476512;28;20039;-43
2023/01/19 05:23:26;;;;;;;11.60;2.25;;;2.90;99.90;;;;;;20482311;28;20131;-43
2023/01/19 05:33:27;;;;;;;7.25;2.33;;;3.00;99.90;;;;;;20482971;28;20036;-43
2023/01/19 05:43:28;;;;;;;19.50;2.38;;;3.20;99.90;;;;;;20484328;28;20039;-43
2023/01/19 05:53:30;;;;;;;1.63;0.75;;;3.20;99.90;;;;;;20481047;28;20080;-43
2023/01/19 06:03:32;;;;;;;4.82;1.77;;;3.20;99.90;;;;;;20474924;28;20463;-43
2023/01/19 06:13:33;;;;;;;6.78;1.58;;;3.20;99.90;;;;;;20481344;28;20644;-43
2023/01/19 06:23:35;;;;;;;3.30;0.95;;;3.30;99.90;;;;;;20481142;28;20071;-43
2023/01/19 06:33:36;;;;;;;4.22;1.13;;;3.20;99.90;;;;;;20478788;28;20094;-43
2023/01/19 06:43:37;;;;;;;5.78;1.33;;;3.20;99.90;;;;;;20487829;28;20042;-43
2023/01/19 06:53:38;;;;;;;8.18;2.35;;;3.10;99.90;;;;;;20492749;28;20047;-43
2023/01/19 07:03:39;;;;;;;1.83;0.60;;;2.90;99.90;;;;;;20495473;28;20039;-43
2023/01/19 07:13:41;;;;;;;1.98;0.65;;;2.70;99.90;;;;;;20485779;28;21816;-44
2023/01/19 07:23:42;;;;;;;4.95;1.52;;;2.50;99.90;;;;;;20481453;28;20075;-43
2023/01/19 07:33:44;;;;;;;2.42;1.33;;;2.30;99.90;;;;;;20475421;28;20038;-44
2023/01/19 07:43:45;;;;;;;6.43;2.00;;;2.30;99.90;;;;;;20491441;28;20136;-44
2023/01/19 07:53:48;;;;;;;5.68;2.70;;;2.30;99.90;;;;;;20481683;28;20047;-44
2023/01/19 08:03:50;;;;;;;3.50;1.02;;;2.20;99.90;;;;;;20486344;28;20109;-44
2023/01/19 08:13:51;;;;;;;7.50;1.38;;;2.20;99.90;;;;;;20485305;28;20236;-44
2023/01/19 08:23:56;;;;;;;9.32;1.92;;;2.20;99.90;;;;;;20485138;28;20328;-44
2023/01/19 08:33:57;;;;;;;7.90;1.75;;;2.40;99.90;;;;;;20488328;28;20137;-44
2023/01/19 08:43:58;;;;;;;1.73;0.52;;;2.50;99.90;;;;;;20472640;28;20178;-44
2023/01/19 08:53:59;;;;;;;3.42;0.80;;;2.70;99.90;;;;;;20474647;28;20046;-43
2023/01/19 09:04:00;;;;;;;4.78;1.08;;;2.90;99.90;;;;;;20483302;28;20610;-44
2023/01/19 09:14:02;;;;;;;12.63;2.05;;;3.00;99.90;;;;;;20479056;28;20082;-44
2023/01/19 09:24:03;;;;;;;4.57;1.98;;;3.20;99.90;;;;;;20441667;28;20188;-44
2023/01/19 09:34:05;;;;;;;9.15;1.15;;;3.10;97.80;;;;;;20475215;28;20337;-44
2023/01/19 09:44:16;;;;;;;3.95;0.77;;;3.40;97.20;;;;;;20467831;28;20075;-44
2023/01/19 09:54:22;;;;;;;3.25;0.95;;;3.80;93.80;;;;;;20462712;28;20072;-44
2023/01/19 10:04:40;;;;;;;2.77;1.20;;;4.20;88.20;;;;;;20467162;28;20046;-44
2023/01/19 10:14:47;;;;;;;4.05;0.82;;;4.30;74.70;;;;;;20451290;28;20229;-44
2023/01/19 10:24:53;;;;;;;2.28;1.10;;;4.60;69.60;;;;;;20478569;28;20119;-44
2023/01/19 10:34:56;;;;;;;2.40;0.87;;;5.00;52.40;;;;;;20473572;28;20086;-44
2023/01/19 10:44:57;;;;;;;2.03;0.63;;;5.50;42.70;;;;;;20483032;28;20950;-45
2023/01/19 10:55:01;;;;;;;1.38;0.63;;;5.80;39.30;;;;;;20472140;28;20368;-44
2023/01/19 11:05:23;;;;;;;9.07;1.05;;;6.30;41.50;;;;;;20490939;28;20556;-44
2023/01/19 11:15:31;;;;;;;1.13;0.30;;;6.90;31.50;;;;;;20469555;28;20039;-45
2023/01/19 11:25:34;;;;;;;0.93;0.57;;;7.60;25.20;;;;;;20481152;28;20359;-44
2023/01/19 11:35:40;;;;;;;2.92;0.63;;;8.00;23.60;;;;;;20480906;28;20039;-44
2023/01/19 11:45:42;;;;;;;0.90;0.38;;;7.60;24.70;;;;;;20483933;28;21662;-44
2023/01/19 11:55:51;;;;;;;4.32;0.60;;;7.40;20.40;;;;;;20494323;28;20490;-44
2023/01/19 12:05:59;;;;;;;0.82;0.38;;;8.20;19.20;;;;;;20490602;28;20042;-44
2023/01/19 12:16:09;;;;;;;1.05;0.30;;;8.70;13.90;;;;;;20489672;28;20897;-45
2023/01/19 12:26:31;;;;;;;0.43;0.15;;;8.50;12.70;;;;;;20487351;28;20109;-45
2023/01/19 12:36:37;;;;;;;0.50;0.20;;;8.70;12.20;;;;;;20476389;28;22555;-44
2023/01/19 12:46:52;;;;;;;0.93;0.40;;;8.60;13.00;;;;;;20482369;28;20576;-45
2023/01/19 12:56:59;;;;;;;0.60;0.30;;;8.70;12.10;;;;;;20484806;28;20278;-45
2023/01/19 13:07:04;;;;;;;1.38;0.20;;;8.40;8.70;;;;;;20489932;28;20505;-45
2023/01/19 13:17:20;;;;;;;1.15;0.50;;;8.80;13.50;;;;;;20489938;28;20124;-45
2023/01/19 13:27:21;;;;;;;0.60;0.30;;;9.20;5.90;;;;;;20488752;28;20039;-45
2023/01/19 13:37:43;;;;;;;1.00;0.30;;;8.40;8.00;;;;;;20475974;28;20177;-45
2023/01/19 13:47:48;;;;;;;0.60;0.40;;;8.70;4.10;;;;;;20492770;28;21666;-45
2023/01/19 13:57:50;;;;;;;0.98;0.43;;;8.00;10.30;;;;;;20483865;28;20078;-45
2023/01/19 14:08:01;;;;;;;0.80;0.30;;;7.40;8.00;;;;;;20488513;28;20149;-45
2023/01/19 14:18:17;;;;;;;3.92;0.70;;;6.80;8.90;;;;;;20489367;28;20434;-45
2023/01/19 14:28:28;;;;;;;0.60;0.35;;;6.50;14.40;;;;;;20489302;28;20279;-45
2023/01/19 14:38:29;;;;;;;3.03;0.73;;;6.50;13.00;;;;;;20485275;28;21790;-45
2023/01/19 14:48:31;;;;;;;0.22;0.10;;;6.40;9.90;;;;;;20486204;28;20039;-45
2023/01/19 14:58:34;;;;;;;0.60;0.30;;;6.60;14.20;;;;;;20485889;28;20098;-45
2023/01/19 15:08:37;;;;;;;1.85;0.82;;;6.70;10.90;;;;;;20488272;28;20518;-45
2023/01/19 15:18:39;;;;;;;4.22;1.63;;;6.60;12.10;;;;;;20473666;28;20227;-45
2023/01/19 15:28:40;;;;;;;13.90;0.90;;;6.30;12.10;;;;;;20480788;28;20039;-45
2023/01/19 15:38:41;;;;;;;2.63;0.75;;;5.80;18.30;;;;;;20486700;28;20047;-45
2023/01/19 15:48:42;;;;;;;1.52;0.38;;;5.40;22.00;;;;;;20473096;28;20450;-45
2023/01/19 15:58:43;;;;;;;0.82;0.50;;;5.00;25.10;;;;;;20470727;28;20407;-45
2023/01/19 16:08:44;;;;;;;1.75;0.60;;;4.70;29.20;;;;;;20469279;28;20386;-45
2023/01/19 16:18:46;;;;;;;2.30;0.70;;;4.40;31.10;;;;;;20472594;28;20137;-45
2023/01/19 16:28:47;;;;;;;1.65;0.47;;;4.10;31.60;;;;;;20473244;28;20043;-45
2023/01/19 16:38:48;;;;;;;1.40;0.80;;;4.00;32.40;;;;;;20462440;28;20137;-45
2023/01/19 16:48:50;;;;;;;8.15;0.90;;;3.80;36.50;;;;;;20460978;28;20169;-45
2023/01/19 16:58:55;;;;;;;2.60;0.45;;;3.60;37.00;;;;;;20466549;28;20039;-45
2023/01/19 17:08:57;;;;;;;4.35;1.67;;;3.40;38.40;;;;;;20469990;28;20105;-45
2023/01/19 17:19:00;;;;;;;2.83;1.30;;;3.40;41.10;;;;;;20442093;28;20118;-45
2023/01/19 17:29:04;;;;;;;2.90;1.38;;;3.20;43.50;;;;;;20457147;28;20130;-45
2023/01/19 17:39:07;;;;;;;4.35;1.80;;;3.00;45.80;;;;;;20457578;28;20043;-45
2023/01/19 17:49:09;;;;;;;3.63;1.13;;;2.90;48.10;;;;;;20452748;28;20078;-45
2023/01/19 17:59:10;;;;;;;2.35;1.27;;;3.00;47.00;;;;;;20466108;28;20051;-45
2023/01/19 18:09:11;;;;;;;1.98;0.77;;;3.10;38.20;;;;;;20456483;28;20334;-45
2023/01/19 18:19:27;;;;;;;6.43;4.22;;;3.00;45.80;;;;;;20417658;28;20054;-45
2023/01/19 18:29:28;;;;;;;0.75;0.30;;;3.00;46.30;;;;;;20463090;28;20043;-45
2023/01/19 18:39:29;;;;;;;2.72;0.80;;;2.90;44.20;;;;;;20470744;28;20107;-46
2023/01/19 18:49:30;;;;;;;1.00;0.50;;;2.80;49.40;;;;;;20471058;28;20536;-45
2023/01/19 18:59:31;;;;;;;0.82;0.40;;;2.70;52.40;;;;;;20483105;28;20046;-45
2023/01/19 19:09:32;;;;;;;2.03;0.77;;;2.80;56.80;;;;;;20446738;28;21000;-45
2023/01/19 19:19:33;;;;;;;0.70;0.40;;;2.80;59.00;;;;;;20484001;28;21008;-45
2023/01/19 19:29:34;;;;;;;1.70;0.77;;;2.70;58.20;;;;;;20467144;28;20043;-45
2023/01/19 19:39:37;;;;;;;5.25;1.67;;;2.40;64.60;;;;;;20474522;28;20035;-45
2023/01/19 19:49:38;;;;;;;0.82;0.40;;;2.40;73.50;;;;;;20471540;28;20141;-45
2023/01/19 19:59:39;;;;;;;2.55;1.10;;;2.40;78.80;;;;;;20489233;28;20046;-45
2023/01/19 20:09:40;;;;;;;1.70;0.77;;;2.50;82.10;;;;;;20474598;28;20087;-45
2023/01/19 20:19:44;;;;;;;3.83;2.15;;;2.60;87.30;;;;;;20472865;28;20059;-45
2023/01/19 20:29:49;;;;;;;9.45;4.15;;;2.60;83.60;;;;;;20473870;28;20078;-46
2023/01/19 20:39:50;;;;;;;6.80;2.65;;;2.50;82.40;;;;;;20478105;28;20145;-46
2023/01/19 20:49:51;;;;;;;3.40;0.80;;;2.20;82.50;;;;;;20475555;28;20093;-46
2023/01/19 20:59:52;;;;;;;1.38;0.73;;;2.00;85.10;;;;;;20493020;28;20042;-46
2023/01/19 21:09:53;;;;;;;11.68;1.73;;;2.20;90.50;;;;;;20478050;28;20490;-46
2023/01/19 21:19:54;;;;;;;3.67;1.58;;;2.00;89.80;;;;;;20476969;28;20514;-46
2023/01/19 21:29:57;;;;;;;2.78;1.23;;;1.90;90.60;;;;;;20471302;28;20047;-46
2023/01/19 21:39:58;;;;;;;3.70;1.80;;;1.90;90.90;;;;;;20472633;28;20599;-46
2023/01/19 21:50:00;;;;;;;4.07;2.00;;;1.80;91.90;;;;;;20462702;28;20118;-46
2023/01/19 22:00:01;;;;;;;5.53;2.63;;;1.80;92.40;;;;;;20462979;28;20210;-45
2023/01/19 22:10:02;;;;;;;8.45;2.28;;;1.80;93.30;;;;;;20480440;28;20334;-45
2023/01/19 22:20:03;;;;;;;3.58;2.17;;;1.70;94.50;;;;;;20485063;28;20103;-46
2023/01/19 22:30:05;;;;;;;3.00;1.63;;;1.60;92.00;;;;;;20489379;28;20573;-46
2023/01/19 22:40:07;;;;;;;3.33;1.33;;;1.50;92.80;;;;;;20476885;28;20420;-46
2023/01/19 22:50:08;;;;;;;3.10;1.40;;;1.40;93.70;;;;;;20488236;28;20039;-46
2023/01/19 23:00:10;;;;;;;3.38;1.77;;;1.40;94.70;;;;;;20514147;28;20453;-46
2023/01/19 23:10:11;;;;;;;3.25;1.70;;;1.40;96.00;;;;;;20481725;28;20131;-46
2023/01/19 23:20:13;;;;;;;3.33;1.33;;;1.40;97.10;;;;;;20514402;28;20047;-46
2023/01/19 23:30:14;;;;;;;3.72;1.85;;;1.30;98.40;;;;;;20502353;28;21011;-46
2023/01/19 23:40:15;;;;;;;3.58;1.77;;;1.30;98.90;;;;;;20495713;28;20043;-46
2023/01/19 23:50:17;;;;;;;5.05;2.65;;;1.30;98.60;;;;;;20493995;28;20114;-46
